Time;durP1;ratioP1;P1;durP2;ratioP2;P2;SDS_P1;SDS_P2;PMS_P1;PMS_P2;Temp;Humidity;BMP_temperature;BMP_pressure;BME280_temperature;BME280_humidity;BME280_pressure;Samples;Min_cycle;Max_cycle;Signal;HPM_P1;HPM_P2
2022/10/12 00:00:49;;;;;;;45.97;42.63;;;5.10;99.90;;;;;;5130215;27;20298;-51
2022/10/12 00:03:19;;;;;;;54.43;50.63;;;5.10;99.90;;;;;;5129882;27;20286;-51
2022/10/12 00:05:47;;;;;;;60.17;55.30;;;5.10;99.90;;;;;;5130097;27;20307;-51
2022/10/12 00:08:15;;;;;;;37.93;34.27;;;5.00;99.90;;;;;;5130119;27;20229;-51
2022/10/12 00:10:44;;;;;;;103.40;94.80;;;5.00;99.90;;;;;;5130273;27;20296;-51
2022/10/12 00:13:12;;;;;;;46.50;39.40;;;4.90;99.90;;;;;;5123294;27;20558;-51
2022/10/12 00:15:41;;;;;;;27.53;25.13;;;4.90;99.90;;;;;;5130549;27;20233;-51
2022/10/12 00:18:09;;;;;;;57.60;52.63;;;4.90;99.90;;;;;;5130435;27;20207;-51
2022/10/12 00:20:38;;;;;;;52.77;46.97;;;4.90;99.90;;;;;;5129959;27;20203;-51
2022/10/12 00:23:07;;;;;;;24.43;22.07;;;4.90;99.90;;;;;;5117928;27;20252;-51
2022/10/12 00:25:37;;;;;;;64.97;59.53;;;4.80;99.90;;;;;;5126495;27;20332;-52
2022/10/12 00:28:06;;;;;;;23.77;21.70;;;4.80;99.90;;;;;;5123273;27;20297;-51
2022/10/12 00:30:34;;;;;;;70.17;64.73;;;4.80;99.90;;;;;;5128241;28;20323;-52
2022/10/12 00:33:02;;;;;;;61.30;57.03;;;4.80;99.90;;;;;;5115988;28;20425;-51
2022/10/12 00:35:30;;;;;;;47.83;43.83;;;4.80;99.90;;;;;;5129949;28;20317;-51
2022/10/12 00:38:00;;;;;;;24.13;22.27;;;4.70;99.90;;;;;;5130081;27;20563;-51
2022/10/12 00:40:28;;;;;;;39.67;36.67;;;4.70;99.90;;;;;;5128689;28;20321;-51
2022/10/12 00:42:56;;;;;;;61.53;57.63;;;4.70;99.90;;;;;;5128943;28;20228;-51
2022/10/12 00:45:25;;;;;;;52.93;48.67;;;4.70;99.90;;;;;;5129900;28;20336;-51
2022/10/12 00:47:57;;;;;;;73.67;69.37;;;4.70;99.90;;;;;;5129996;28;20206;-51
2022/10/12 00:50:27;;;;;;;74.47;68.30;;;4.70;99.90;;;;;;5126955;28;20647;-51
2022/10/12 00:53:03;;;;;;;22.43;20.97;;;4.60;99.90;;;;;;5127528;28;20290;-51
2022/10/12 00:55:35;;;;;;;85.03;77.83;;;4.60;99.90;;;;;;5129862;28;20235;-51
2022/10/12 00:58:04;;;;;;;76.70;71.30;;;4.50;99.90;;;;;;5129847;27;20239;-51
2022/10/12 01:00:33;;;;;;;60.23;54.40;;;4.50;99.90;;;;;;5129922;28;20397;-51
2022/10/12 01:03:01;;;;;;;60.37;55.70;;;4.50;99.90;;;;;;5129255;28;20211;-51
2022/10/12 01:05:29;;;;;;;57.83;53.93;;;4.50;99.90;;;;;;5128123;28;20223;-53
2022/10/12 01:07:58;;;;;;;57.43;53.20;;;4.50;99.90;;;;;;5130698;28;20296;-51
2022/10/12 01:10:27;;;;;;;83.67;76.67;;;4.50;99.90;;;;;;5130526;28;20205;-51
2022/10/12 01:12:56;;;;;;;57.70;53.60;;;4.50;99.90;;;;;;5129634;27;20213;-50
2022/10/12 01:15:29;;;;;;;44.97;41.73;;;4.50;99.90;;;;;;5129749;28;20327;-51
2022/10/12 01:18:06;;;;;;;85.37;77.83;;;4.50;99.90;;;;;;5129283;28;20302;-51
2022/10/12 01:20:57;;;;;;;51.23;47.60;;;4.50;99.90;;;;;;5128824;28;20204;-51
2022/10/12 01:24:07;;;;;;;69.37;62.27;;;4.50;99.90;;;;;;5115645;28;20210;-51
2022/10/12 01:27:16;;;;;;;69.13;65.30;;;4.50;99.90;;;;;;5103593;28;20310;-51
2022/10/12 01:30:11;;;;;;;24.40;22.10;;;4.50;99.90;;;;;;5102471;28;20208;-51
2022/10/12 01:32:53;;;;;;;114.40;100.37;;;4.50;99.90;;;;;;5095297;28;20635;-51
2022/10/12 01:35:28;;;;;;;48.40;45.27;;;4.40;99.90;;;;;;5126730;27;20596;-51
2022/10/12 01:38:07;;;;;;;75.03;67.83;;;4.50;99.90;;;;;;5133574;27;20201;-51
2022/10/12 01:40:39;;;;;;;18.77;17.27;;;4.50;99.90;;;;;;5133231;27;20287;-51
2022/10/12 01:43:08;;;;;;;32.73;29.90;;;4.50;99.90;;;;;;5133060;27;20214;-51
2022/10/12 01:45:37;;;;;;;35.03;31.57;;;4.50;99.90;;;;;;5133276;27;20310;-51
2022/10/12 01:48:06;;;;;;;47.80;43.93;;;4.50;99.90;;;;;;5133436;27;20209;-54
2022/10/12 01:50:42;;;;;;;45.00;42.07;;;4.40;99.90;;;;;;5129145;27;20224;-52
2022/10/12 01:53:28;;;;;;;19.50;16.73;;;4.50;99.90;;;;;;5118730;27;20295;-51
2022/10/12 01:56:02;;;;;;;81.73;75.50;;;4.50;99.90;;;;;;5132812;27;20339;-51
2022/10/12 01:58:48;;;;;;;43.60;40.03;;;4.40;99.90;;;;;;5133134;27;20218;-51
2022/10/12 02:01:27;;;;;;;146.33;135.50;;;4.40;99.90;;;;;;5132976;27;20298;-51
2022/10/12 02:04:00;;;;;;;73.97;68.83;;;4.30;99.90;;;;;;5132344;27;20223;-51
2022/10/12 02:06:34;;;;;;;60.90;56.93;;;4.30;99.90;;;;;;5132607;27;20251;-50
2022/10/12 02:09:07;;;;;;;77.97;71.03;;;4.30;99.90;;;;;;5132619;27;20211;-51
2022/10/12 02:11:39;;;;;;;76.67;71.63;;;4.30;99.90;;;;;;5129445;27;20662;-51
2022/10/12 02:14:12;;;;;;;77.27;70.63;;;4.30;99.90;;;;;;5131756;27;20224;-51
2022/10/12 02:16:45;;;;;;;86.47;78.53;;;4.30;99.90;;;;;;5122115;27;20290;-51
2022/10/12 02:19:18;;;;;;;29.33;27.03;;;4.40;99.90;;;;;;5132659;27;20294;-51
2022/10/12 02:21:48;;;;;;;40.00;36.97;;;4.40;99.90;;;;;;5132264;27;20201;-51
2022/10/12 02:24:18;;;;;;;51.63;44.40;;;4.40;99.90;;;;;;5104273;27;20231;-50
2022/10/12 02:26:50;;;;;;;43.23;40.13;;;4.30;99.90;;;;;;5132131;27;20282;-51
2022/10/12 02:29:21;;;;;;;74.90;69.77;;;4.30;99.90;;;;;;5125540;27;20738;-51
2022/10/12 02:31:56;;;;;;;66.90;62.97;;;4.30;99.90;;;;;;5119649;27;20298;-51
2022/10/12 02:34:31;;;;;;;42.17;39.13;;;4.30;99.90;;;;;;5132196;27;20312;-51
2022/10/12 02:37:05;;;;;;;73.57;66.87;;;4.30;99.90;;;;;;5132130;27;20202;-51
2022/10/12 02:39:40;;;;;;;54.93;50.70;;;4.30;99.90;;;;;;5131666;27;20293;-51
2022/10/12 02:42:12;;;;;;;25.20;22.77;;;4.40;99.90;;;;;;5131461;27;20232;-51
2022/10/12 02:44:42;;;;;;;43.63;40.03;;;4.40;99.90;;;;;;5111142;27;20232;-51
2022/10/12 02:47:14;;;;;;;53.17;48.87;;;4.40;99.90;;;;;;5117774;27;20250;-51
2022/10/12 02:49:43;;;;;;;86.13;79.73;;;4.30;99.90;;;;;;5126374;27;20207;-51
2022/10/12 02:52:12;;;;;;;61.10;56.67;;;4.30;99.90;;;;;;5131368;27;20687;-51
2022/10/12 02:54:40;;;;;;;59.20;55.20;;;4.20;99.90;;;;;;5114258;27;20223;-51
2022/10/12 02:57:08;;;;;;;48.50;44.77;;;4.20;99.90;;;;;;5110929;28;20211;-50
2022/10/12 02:59:36;;;;;;;84.40;77.20;;;4.20;99.90;;;;;;5111048;28;20305;-51
2022/10/12 03:02:04;;;;;;;66.43;61.93;;;4.20;99.90;;;;;;5110460;28;20216;-51
2022/10/12 03:04:34;;;;;;;28.20;26.43;;;4.20;99.90;;;;;;5110768;28;20336;-51
2022/10/12 03:07:02;;;;;;;69.77;64.43;;;4.20;99.90;;;;;;5111264;28;20232;-51
2022/10/12 03:09:30;;;;;;;50.30;47.23;;;4.20;99.90;;;;;;5110796;28;20304;-51
2022/10/12 03:11:58;;;;;;;18.63;16.80;;;4.20;99.90;;;;;;5110184;28;20688;-51
2022/10/12 03:14:26;;;;;;;65.93;60.53;;;4.20;99.90;;;;;;5110456;28;20233;-51
2022/10/12 03:16:54;;;;;;;79.67;73.47;;;4.10;99.90;;;;;;5111075;28;20319;-51
2022/10/12 03:19:22;;;;;;;59.90;55.47;;;4.10;99.90;;;;;;5109654;28;20302;-51
2022/10/12 03:21:52;;;;;;;75.03;68.60;;;4.10;99.90;;;;;;5110257;28;20588;-51
2022/10/12 03:24:20;;;;;;;137.33;124.37;;;4.10;99.90;;;;;;5110223;28;20227;-51
2022/10/12 03:26:48;;;;;;;55.13;51.53;;;4.00;99.90;;;;;;5110395;28;20889;-51
2022/10/12 03:29:16;;;;;;;75.90;70.87;;;4.00;99.90;;;;;;5109940;28;20242;-50
2022/10/12 03:31:44;;;;;;;84.47;76.83;;;4.00;99.90;;;;;;5102452;28;20212;-52
2022/10/12 03:34:12;;;;;;;65.63;61.07;;;3.90;99.90;;;;;;5108905;28;20220;-51
2022/10/12 03:36:40;;;;;;;74.47;68.67;;;3.90;99.90;;;;;;5110586;28;20226;-50
2022/10/12 03:39:11;;;;;;;167.40;154.53;;;3.90;99.90;;;;;;5109739;28;20290;-52
2022/10/12 03:41:39;;;;;;;36.03;33.67;;;3.90;99.90;;;;;;5109835;28;20203;-51
2022/10/12 03:44:07;;;;;;;89.93;84.17;;;3.80;99.90;;;;;;5110381;28;20313;-51
2022/10/12 03:46:35;;;;;;;42.70;39.83;;;3.90;99.90;;;;;;5110153;28;20217;-51
2022/10/12 03:49:03;;;;;;;37.03;34.43;;;3.80;99.90;;;;;;5110056;28;20210;-51
2022/10/12 03:51:31;;;;;;;80.97;75.63;;;3.80;99.90;;;;;;5110150;28;20211;-51
2022/10/12 03:53:59;;;;;;;66.80;62.53;;;3.80;99.90;;;;;;5109685;28;20226;-51
2022/10/12 03:56:29;;;;;;;92.27;86.57;;;3.80;99.90;;;;;;5109630;28;20704;-51
2022/10/12 03:58:57;;;;;;;92.10;86.93;;;3.80;99.90;;;;;;5109727;28;20310;-51
2022/10/12 04:01:25;;;;;;;126.70;117.33;;;3.70;99.90;;;;;;5110107;28;20229;-51
2022/10/12 04:03:53;;;;;;;109.13;100.60;;;3.70;99.90;;;;;;5108730;28;20712;-51
2022/10/12 04:06:21;;;;;;;114.07;106.00;;;3.60;99.90;;;;;;5109590;28;20245;-51
2022/10/12 04:08:49;;;;;;;59.43;55.37;;;3.60;99.90;;;;;;5102930;28;20283;-51
2022/10/12 04:11:19;;;;;;;84.13;79.07;;;3.60;99.90;;;;;;5110078;28;20416;-50
2022/10/12 04:13:48;;;;;;;46.13;42.73;;;3.60;99.90;;;;;;5109465;28;20239;-51
2022/10/12 04:16:16;;;;;;;43.77;41.20;;;3.60;99.90;;;;;;5110061;28;20317;-51
2022/10/12 04:18:44;;;;;;;76.50;71.57;;;3.70;99.90;;;;;;5109445;28;20298;-51
2022/10/12 04:21:14;;;;;;;89.93;84.07;;;3.70;99.90;;;;;;5107831;28;20214;-51
2022/10/12 04:23:43;;;;;;;56.23;52.63;;;3.70;99.90;;;;;;5109041;28;20297;-51
2022/10/12 04:26:11;;;;;;;122.77;113.30;;;3.60;99.90;;;;;;5109085;28;20292;-50
2022/10/12 04:28:39;;;;;;;35.83;33.33;;;3.60;99.90;;;;;;5109599;28;20218;-51
2022/10/12 04:31:08;;;;;;;52.33;48.97;;;3.60;99.90;;;;;;5108930;28;20229;-51
2022/10/12 04:33:36;;;;;;;95.20;86.63;;;3.70;99.90;;;;;;5107794;28;20223;-51
2022/10/12 04:36:05;;;;;;;55.30;50.63;;;3.70;99.90;;;;;;5109012;28;20233;-51
2022/10/12 04:38:33;;;;;;;80.47;74.63;;;3.60;99.90;;;;;;5109723;28;20295;-50
2022/10/12 04:41:01;;;;;;;106.60;98.47;;;3.70;99.90;;;;;;5103753;28;20374;-50
2022/10/12 04:43:29;;;;;;;194.23;121.50;;;3.70;99.90;;;;;;5108734;28;20287;-51
2022/10/12 04:45:58;;;;;;;77.00;70.70;;;3.80;99.90;;;;;;5109820;28;20266;-51
2022/10/12 04:48:28;;;;;;;59.57;55.37;;;3.80;99.90;;;;;;5109394;28;20646;-51
2022/10/12 04:50:56;;;;;;;85.33;79.00;;;3.80;99.90;;;;;;5109345;28;20207;-51
2022/10/12 04:53:24;;;;;;;472.83;354.50;;;3.80;99.90;;;;;;5108833;28;20200;-51
2022/10/12 04:55:52;;;;;;;67.67;62.80;;;3.80;99.90;;;;;;5108807;28;20200;-51
2022/10/12 04:58:20;;;;;;;157.10;137.77;;;3.80;99.90;;;;;;5109117;28;20948;-51
2022/10/12 05:00:49;;;;;;;138.67;80.50;;;3.80;99.90;;;;;;5109860;28;20200;-49
2022/10/12 05:03:17;;;;;;;92.40;86.07;;;3.80;99.90;;;;;;5109425;28;20596;-51
2022/10/12 05:05:46;;;;;;;90.30;84.20;;;3.80;99.90;;;;;;5109274;28;20725;-50
2022/10/12 05:08:14;;;;;;;83.77;76.77;;;3.80;99.90;;;;;;5098249;28;20303;-50
2022/10/12 05:10:42;;;;;;;23.77;21.87;;;3.80;99.90;;;;;;5108098;28;20204;-50
2022/10/12 05:13:11;;;;;;;63.73;59.43;;;3.70;99.90;;;;;;5113475;28;20693;-51
2022/10/12 05:15:39;;;;;;;87.67;81.67;;;3.70;99.90;;;;;;5113853;28;20614;-50
2022/10/12 05:18:07;;;;;;;60.60;56.60;;;3.70;99.90;;;;;;5113847;28;20313;-50
2022/10/12 05:20:36;;;;;;;75.53;70.20;;;3.60;99.90;;;;;;5113051;28;20215;-51
2022/10/12 05:23:05;;;;;;;64.13;60.07;;;3.60;99.90;;;;;;5112496;28;20639;-51
2022/10/12 05:25:34;;;;;;;116.97;108.17;;;3.60;99.90;;;;;;5106582;28;20795;-49
2022/10/12 05:28:02;;;;;;;87.67;82.27;;;3.50;99.90;;;;;;5113170;28;20728;-50
2022/10/12 05:30:30;;;;;;;102.20;94.57;;;3.50;99.90;;;;;;5108586;27;20298;-49
2022/10/12 05:32:58;;;;;;;49.83;46.30;;;3.50;99.90;;;;;;5110653;28;20733;-50
2022/10/12 05:35:26;;;;;;;109.90;100.20;;;3.50;99.90;;;;;;5113047;28;20240;-51
2022/10/12 05:37:54;;;;;;;24.20;22.13;;;3.50;99.90;;;;;;5114166;28;20587;-51
2022/10/12 05:40:24;;;;;;;48.70;45.17;;;3.50;99.90;;;;;;5112391;28;20563;-51
2022/10/12 05:42:52;;;;;;;85.40;79.83;;;3.50;99.90;;;;;;5113109;28;20233;-51
2022/10/12 05:45:20;;;;;;;114.77;107.47;;;3.50;99.90;;;;;;5113555;28;20322;-51
2022/10/12 05:47:48;;;;;;;88.03;82.30;;;3.50;99.90;;;;;;5113214;28;20294;-51
2022/10/12 05:50:16;;;;;;;102.40;95.40;;;3.50;99.90;;;;;;5104205;28;20209;-50
2022/10/12 05:52:45;;;;;;;34.77;32.37;;;3.50;99.90;;;;;;5123802;27;20296;-52
2022/10/12 05:55:13;;;;;;;45.17;42.10;;;3.50;99.90;;;;;;5112264;28;20318;-51
2022/10/12 05:57:42;;;;;;;86.43;81.00;;;3.50;99.90;;;;;;5111334;27;20216;-50
2022/10/12 06:00:16;;;;;;;38.40;35.70;;;3.50;99.90;;;;;;5109052;27;20605;-51
2022/10/12 06:02:44;;;;;;;56.50;52.40;;;3.50;99.90;;;;;;5102476;28;20296;-50
2022/10/12 06:05:12;;;;;;;106.67;98.70;;;3.60;99.90;;;;;;5112820;28;20318;-51
2022/10/12 06:07:40;;;;;;;81.70;75.37;;;3.60;99.90;;;;;;5098756;28;20227;-51
2022/10/12 06:10:09;;;;;;;30.03;27.43;;;3.60;99.90;;;;;;5113136;28;20213;-52
2022/10/12 06:12:37;;;;;;;49.87;45.90;;;3.60;99.90;;;;;;5112883;28;20737;-52
2022/10/12 06:15:09;;;;;;;43.40;40.80;;;3.70;99.90;;;;;;5111940;28;20258;-50
2022/10/12 06:17:37;;;;;;;76.97;71.67;;;3.60;99.90;;;;;;5112736;28;20228;-51
2022/10/12 06:20:06;;;;;;;124.07;116.07;;;3.60;99.90;;;;;;5112928;28;20646;-51
2022/10/12 06:22:34;;;;;;;68.63;63.77;;;3.60;99.90;;;;;;5111383;28;20710;-51
2022/10/12 06:25:02;;;;;;;66.40;61.20;;;3.70;99.90;;;;;;5112540;28;20282;-51
2022/10/12 06:27:30;;;;;;;71.50;66.57;;;3.70;99.90;;;;;;5111859;28;20271;-51
2022/10/12 06:29:58;;;;;;;43.10;39.63;;;3.80;99.90;;;;;;5111884;28;20324;-51
2022/10/12 06:32:28;;;;;;;90.37;74.50;;;3.90;99.90;;;;;;5112901;27;20294;-50
2022/10/12 06:34:56;;;;;;;66.57;61.27;;;4.00;99.90;;;;;;5112851;28;20304;-51
2022/10/12 06:37:24;;;;;;;107.77;97.97;;;4.10;99.90;;;;;;5116017;28;20665;-52
2022/10/12 06:40:12;;;;;;;43.00;38.57;;;4.10;99.90;;;;;;5114842;28;20605;-51
2022/10/12 06:42:40;;;;;;;47.17;43.67;;;4.10;99.90;;;;;;5115897;28;20298;-52
2022/10/12 06:45:09;;;;;;;74.57;69.73;;;4.20;99.90;;;;;;5101632;28;20704;-51
2022/10/12 06:47:39;;;;;;;72.23;66.27;;;4.30;99.90;;;;;;5115506;28;20296;-51
2022/10/12 06:50:08;;;;;;;61.23;56.20;;;4.30;99.90;;;;;;5111899;28;20296;-50
2022/10/12 06:52:36;;;;;;;70.50;65.73;;;4.40;99.90;;;;;;5111032;28;20207;-51
2022/10/12 06:55:06;;;;;;;40.40;36.37;;;4.50;99.90;;;;;;5111381;28;20370;-52
2022/10/12 06:57:36;;;;;;;137.37;116.50;;;4.70;99.90;;;;;;5111729;28;20261;-52
2022/10/12 07:00:06;;;;;;;268.80;222.70;;;4.90;99.90;;;;;;5111026;28;20291;-50
2022/10/12 07:02:34;;;;;;;257.27;149.23;;;5.10;99.90;;;;;;5110931;28;20584;-52
2022/10/12 07:05:04;;;;;;;448.33;358.50;;;5.40;99.90;;;;;;5102496;28;20237;-51
2022/10/12 07:07:34;;;;;;;559.70;393.87;;;5.70;99.90;;;;;;5105738;28;20717;-51
2022/10/12 07:10:03;;;;;;;618.13;435.30;;;5.90;99.90;;;;;;5094187;28;20293;-52
2022/10/12 07:12:31;;;;;;;970.87;639.60;;;6.10;99.90;;;;;;5130941;27;20292;-51
2022/10/12 07:14:59;;;;;;;1079.17;736.47;;;6.30;99.90;;;;;;5131919;27;20227;-50
2022/10/12 07:17:27;;;;;;;857.90;616.13;;;6.50;99.90;;;;;;5132061;27;20229;-51
2022/10/12 07:19:55;;;;;;;1080.37;679.93;;;6.70;99.90;;;;;;5131532;27;20282;-51
2022/10/12 07:22:24;;;;;;;1284.83;711.53;;;6.90;99.90;;;;;;5131297;27;20208;-51
2022/10/12 07:24:52;;;;;;;1048.27;657.20;;;7.10;99.90;;;;;;5131102;27;20670;-51
2022/10/12 07:27:21;;;;;;;1010.53;628.23;;;7.10;99.90;;;;;;5131239;27;20207;-52
2022/10/12 07:29:49;;;;;;;1066.50;642.17;;;7.30;99.90;;;;;;5131926;27;20208;-51
2022/10/12 07:32:17;;;;;;;1236.83;694.97;;;7.50;99.90;;;;;;5127950;27;20219;-52
2022/10/12 07:34:45;;;;;;;1371.50;785.63;;;7.70;99.90;;;;;;5129574;27;20309;-50
2022/10/12 07:37:14;;;;;;;1243.93;733.20;;;7.80;99.90;;;;;;5130823;27;20656;-50
2022/10/12 07:39:43;;;;;;;877.47;634.00;;;7.80;99.90;;;;;;5131396;27;20289;-51
2022/10/12 07:42:11;;;;;;;808.43;466.37;;;7.80;99.90;;;;;;5130580;27;20289;-51
2022/10/12 07:44:46;;;;;;;574.87;400.70;;;7.80;99.90;;;;;;5130846;27;20222;-52
2022/10/12 07:47:15;;;;;;;713.83;515.00;;;7.80;99.90;;;;;;5130968;27;20690;-50
2022/10/12 07:49:43;;;;;;;509.23;328.17;;;7.80;99.90;;;;;;5130324;27;20232;-51
2022/10/12 07:52:11;;;;;;;327.50;196.83;;;7.70;99.90;;;;;;5130962;27;20297;-50
2022/10/12 07:54:39;;;;;;;554.23;427.67;;;7.80;99.90;;;;;;5130661;27;20317;-51
2022/10/12 07:57:08;;;;;;;377.20;276.53;;;7.80;99.90;;;;;;5130871;27;20643;-51
2022/10/12 07:59:37;;;;;;;307.43;254.97;;;7.90;99.90;;;;;;5130958;27;20218;-52
2022/10/12 08:02:05;;;;;;;36.10;27.80;;;7.90;99.90;;;;;;5130148;27;20298;-51
2022/10/12 08:04:33;;;;;;;185.97;151.03;;;8.00;99.90;;;;;;5130765;27;20222;-52
2022/10/12 08:07:01;;;;;;;217.80;154.47;;;8.00;99.90;;;;;;5130836;27;20762;-50
2022/10/12 08:09:29;;;;;;;130.00;92.67;;;8.10;99.90;;;;;;5131303;27;20285;-52
2022/10/12 08:11:57;;;;;;;60.07;37.17;;;8.10;99.90;;;;;;5130261;27;20213;-52
2022/10/12 08:14:26;;;;;;;80.77;70.20;;;8.10;99.90;;;;;;5130663;27;20223;-49
2022/10/12 08:16:54;;;;;;;61.47;39.43;;;8.20;99.90;;;;;;5130570;27;20215;-50
2022/10/12 08:19:22;;;;;;;54.13;35.93;;;8.30;99.90;;;;;;5130141;27;20214;-51
2022/10/12 08:21:51;;;;;;;181.53;97.97;;;8.30;99.90;;;;;;5130859;27;20240;-52
2022/10/12 08:24:19;;;;;;;163.17;104.93;;;8.40;99.90;;;;;;5130718;27;20250;-52
2022/10/12 08:26:47;;;;;;;122.53;66.53;;;8.50;99.90;;;;;;5130195;27;20210;-51
2022/10/12 08:29:15;;;;;;;99.33;60.33;;;8.60;99.90;;;;;;5130580;27;20282;-50
2022/10/12 08:31:45;;;;;;;258.03;167.80;;;8.60;99.90;;;;;;5127302;27;20278;-52
2022/10/12 08:34:13;;;;;;;282.43;161.90;;;8.70;99.90;;;;;;5129099;27;20258;-52
2022/10/12 08:36:41;;;;;;;321.97;217.37;;;8.80;99.90;;;;;;5130811;27;20298;-50
2022/10/12 08:39:09;;;;;;;600.70;393.73;;;8.80;99.90;;;;;;5130135;27;20325;-51
2022/10/12 08:41:46;;;;;;;107.07;82.60;;;8.90;99.90;;;;;;5130278;27;20286;-51
2022/10/12 08:44:30;;;;;;;65.93;49.53;;;9.00;99.90;;;;;;5131560;27;20226;-50
2022/10/12 08:47:03;;;;;;;292.87;130.40;;;9.10;99.90;;;;;;5135100;27;20285;-52
2022/10/12 08:49:33;;;;;;;147.07;90.00;;;9.10;99.90;;;;;;5134570;27;20205;-51
2022/10/12 08:52:05;;;;;;;293.07;231.80;;;9.20;99.90;;;;;;5134595;27;20289;-52
2022/10/12 08:54:38;;;;;;;237.70;166.07;;;9.20;99.90;;;;;;5134774;27;20234;-50
2022/10/12 08:57:13;;;;;;;291.87;156.33;;;9.20;99.90;;;;;;5133975;27;20206;-51
2022/10/12 08:59:41;;;;;;;253.43;184.60;;;9.30;99.90;;;;;;5125826;27;20321;-51
2022/10/12 09:02:31;;;;;;;648.40;302.37;;;9.40;99.90;;;;;;5133384;27;20211;-50
2022/10/12 09:05:01;;;;;;;518.90;319.23;;;9.40;99.90;;;;;;5134302;27;20230;-50
2022/10/12 09:07:31;;;;;;;381.17;282.70;;;9.50;99.90;;;;;;5134054;27;20235;-51
2022/10/12 09:10:12;;;;;;;308.80;223.67;;;9.60;99.90;;;;;;5133939;27;20199;-50
2022/10/12 09:12:50;;;;;;;532.93;351.57;;;9.60;99.90;;;;;;5133445;27;20203;-51
2022/10/12 09:15:22;;;;;;;224.17;144.87;;;9.50;99.90;;;;;;5134287;27;20256;-51
2022/10/12 09:17:54;;;;;;;183.30;119.93;;;9.60;99.90;;;;;;5134545;27;20205;-49
2022/10/12 09:20:26;;;;;;;328.53;228.00;;;9.60;99.90;;;;;;5126726;27;20319;-50
2022/10/12 09:22:58;;;;;;;221.00;137.13;;;9.70;99.90;;;;;;5126716;27;20212;-51
2022/10/12 09:25:28;;;;;;;381.00;246.27;;;9.80;99.90;;;;;;5126346;27;20258;-51
2022/10/12 09:28:06;;;;;;;492.20;303.30;;;9.90;99.90;;;;;;5124632;27;20221;-51
2022/10/12 09:30:41;;;;;;;209.57;114.70;;;10.00;99.90;;;;;;5131962;27;20557;-50
2022/10/12 09:33:17;;;;;;;372.47;246.77;;;10.00;99.90;;;;;;5118681;27;20308;-51
2022/10/12 09:35:49;;;;;;;394.40;280.43;;;10.10;99.90;;;;;;5133696;27;20845;-50
2022/10/12 09:38:17;;;;;;;368.63;199.07;;;10.20;99.90;;;;;;5133669;27;20213;-51
2022/10/12 09:40:46;;;;;;;389.30;216.20;;;10.30;99.90;;;;;;5133472;27;20206;-51
2022/10/12 09:43:14;;;;;;;808.03;425.30;;;10.40;99.90;;;;;;5132936;27;20250;-50
2022/10/12 09:45:43;;;;;;;611.13;398.07;;;10.50;99.90;;;;;;5133835;27;20309;-51
2022/10/12 09:48:19;;;;;;;643.20;422.50;;;10.60;99.90;;;;;;5133903;27;20217;-51
2022/10/12 09:50:52;;;;;;;1338.50;645.58;;;10.60;99.90;;;;;;5132725;27;20436;-51
2022/10/12 09:53:31;;;;;;;815.60;407.40;;;10.80;99.90;;;;;;5128377;27;20206;-51
2022/10/12 09:56:05;;;;;;;586.67;325.87;;;10.90;99.90;;;;;;5126432;27;20222;-51
2022/10/12 09:58:41;;;;;;;306.73;160.70;;;10.90;99.90;;;;;;5133015;27;20309;-52
2022/10/12 10:01:22;;;;;;;940.87;472.23;;;11.00;99.90;;;;;;5119509;27;20206;-51
2022/10/12 10:04:16;;;;;;;697.60;406.60;;;11.10;99.90;;;;;;5132056;27;20254;-51
2022/10/12 10:06:46;;;;;;;374.67;184.93;;;11.20;99.90;;;;;;5132457;27;20286;-50
2022/10/12 10:09:28;;;;;;;705.37;439.73;;;11.30;99.90;;;;;;5132645;27;20643;-51
2022/10/12 10:11:56;;;;;;;406.93;244.47;;;11.40;99.90;;;;;;5132297;27;20260;-50
2022/10/12 10:14:25;;;;;;;847.17;470.43;;;11.50;99.90;;;;;;5132700;27;20219;-50
2022/10/12 10:16:54;;;;;;;762.60;420.10;;;11.50;99.90;;;;;;5133153;27;20235;-51
2022/10/12 10:19:25;;;;;;;778.67;480.73;;;11.60;99.90;;;;;;5133342;27;20231;-51
2022/10/12 10:21:54;;;;;;;759.00;490.37;;;11.70;99.90;;;;;;5132576;27;20294;-51
2022/10/12 10:24:28;;;;;;;670.47;452.73;;;11.70;99.90;;;;;;5132993;27;20309;-52
2022/10/12 10:26:59;;;;;;;816.97;456.03;;;11.70;99.90;;;;;;5133025;27;20317;-51
2022/10/12 10:29:34;;;;;;;575.37;344.67;;;11.80;99.90;;;;;;5132355;27;20201;-51
2022/10/12 10:32:22;;;;;;;624.77;392.07;;;11.90;99.90;;;;;;5125618;27;20858;-51
2022/10/12 10:35:04;;;;;;;891.90;566.90;;;11.80;99.90;;;;;;5131722;27;20302;-51
2022/10/12 10:37:33;;;;;;;739.17;471.40;;;12.00;99.90;;;;;;5132878;27;20203;-51
2022/10/12 10:40:02;;;;;;;810.10;583.03;;;12.10;99.90;;;;;;5131864;27;20230;-51
2022/10/12 10:42:33;;;;;;;1309.30;594.47;;;12.20;99.90;;;;;;5131809;27;20740;-50
2022/10/12 10:45:03;;;;;;;784.73;507.43;;;12.30;99.90;;;;;;5132141;27;20250;-50
2022/10/12 10:47:33;;;;;;;961.37;541.67;;;12.30;99.90;;;;;;5132524;27;20211;-50
2022/10/12 10:50:10;;;;;;;849.53;527.00;;;12.50;99.90;;;;;;5132062;27;20217;-51
2022/10/12 10:52:53;;;;;;;773.90;474.60;;;12.60;99.90;;;;;;5132195;27;20206;-50
2022/10/12 10:55:27;;;;;;;781.73;432.30;;;12.60;99.90;;;;;;5132146;27;20267;-51
2022/10/12 10:58:01;;;;;;;1001.97;608.90;;;12.70;99.90;;;;;;5131743;27;20282;-51
2022/10/12 11:00:34;;;;;;;1073.10;665.47;;;12.80;99.90;;;;;;5118482;27;20233;-51
2022/10/12 11:03:14;;;;;;;942.77;558.37;;;12.80;99.90;;;;;;5131204;27;20199;-51
2022/10/12 11:05:49;;;;;;;876.20;576.53;;;12.80;99.90;;;;;;5130296;27;20226;-51
2022/10/12 11:08:21;;;;;;;1108.37;638.70;;;12.90;99.90;;;;;;5129575;27;20289;-51
2022/10/12 11:10:57;;;;;;;1111.70;673.73;;;13.00;99.90;;;;;;5131106;27;20278;-51
2022/10/12 11:13:31;;;;;;;1036.83;611.30;;;13.10;99.90;;;;;;5131244;27;20286;-50
2022/10/12 11:16:07;;;;;;;894.30;505.33;;;13.20;99.90;;;;;;5131346;27;20241;-51
2022/10/12 11:18:41;;;;;;;1288.40;697.50;;;13.30;99.90;;;;;;5132119;27;20209;-51
2022/10/12 11:21:15;;;;;;;1092.93;609.10;;;13.40;99.90;;;;;;5131275;27;20782;-51
2022/10/12 11:23:50;;;;;;;1261.63;662.90;;;13.40;99.90;;;;;;5130378;27;20203;-51
2022/10/12 11:26:24;;;;;;;1538.13;768.03;;;13.60;99.90;;;;;;5131144;27;20221;-50
2022/10/12 11:28:54;;;;;;;973.70;580.87;;;13.60;99.90;;;;;;5131339;27;20222;-51
2022/10/12 11:31:27;;;;;;;1146.47;677.07;;;13.60;99.90;;;;;;5130897;27;20199;-51
2022/10/12 11:33:59;;;;;;;1048.07;638.33;;;13.60;99.90;;;;;;5130232;27;20265;-51
2022/10/12 11:36:30;;;;;;;1045.13;643.10;;;13.70;99.90;;;;;;5131145;27;20282;-51
2022/10/12 11:39:02;;;;;;;1191.47;682.43;;;13.80;99.90;;;;;;5130978;27;20661;-51
2022/10/12 11:41:44;;;;;;;1095.20;726.00;;;13.90;99.90;;;;;;5130906;27;20215;-51
2022/10/12 11:44:40;;;;;;;1008.87;549.10;;;13.90;99.90;;;;;;5122467;27;20227;-51
2022/10/12 11:47:16;;;;;;;1027.90;571.17;;;14.00;99.90;;;;;;5127365;27;20305;-51
2022/10/12 11:49:51;;;;;;;1017.53;630.43;;;14.20;99.90;;;;;;5131406;27;20286;-50
2022/10/12 11:52:22;;;;;;;1200.33;636.30;;;14.30;99.90;;;;;;5130833;27;20213;-51
2022/10/12 11:55:00;;;;;;;1138.53;711.83;;;14.40;99.90;;;;;;5129715;27;20711;-52
2022/10/12 11:57:33;;;;;;;1057.07;673.93;;;14.50;99.90;;;;;;5130748;27;20203;-52
2022/10/12 12:00:04;;;;;;;1223.17;733.97;;;14.50;99.90;;;;;;5130543;27;20249;-51
2022/10/12 12:02:38;;;;;;;985.73;605.70;;;14.50;99.90;;;;;;5131485;27;20218;-52
2022/10/12 12:05:12;;;;;;;1225.37;656.17;;;14.50;99.90;;;;;;5134036;27;20242;-51
2022/10/12 12:07:47;;;;;;;1216.60;671.53;;;14.60;99.90;;;;;;5134121;27;20206;-52
2022/10/12 12:10:58;;;;;;;1789.17;800.30;;;14.60;99.90;;;;;;5133552;27;20210;-51
2022/10/12 12:13:27;;;;;;;1053.17;648.30;;;14.50;99.90;;;;;;5105979;27;20213;-51
2022/10/12 12:16:30;;;;;;;1106.00;659.87;;;14.50;99.90;;;;;;5130983;27;20304;-51
2022/10/12 12:19:15;;;;;;;1087.40;677.37;;;14.50;99.90;;;;;;5129826;27;20298;-51
2022/10/12 12:22:27;;;;;;;1059.97;597.27;;;14.40;99.90;;;;;;5130226;27;20306;-50
2022/10/12 12:25:20;;;;;;;883.90;440.10;;;14.40;99.90;;;;;;5129257;27;20277;-51
2022/10/12 12:27:51;;;;;;;898.10;607.40;;;14.40;99.90;;;;;;5129987;27;20210;-51
2022/10/12 12:30:33;;;;;;;1181.93;633.60;;;14.40;99.90;;;;;;5130319;27;20203;-50
2022/10/12 12:33:04;;;;;;;958.80;524.47;;;14.30;99.90;;;;;;5127460;27;20206;-50
2022/10/12 12:35:38;;;;;;;1859.40;792.00;;;14.20;99.90;;;;;;5118504;28;20235;-50
2022/10/12 12:38:19;;;;;;;1363.77;631.73;;;14.20;99.90;;;;;;5128849;27;20242;-52
2022/10/12 12:41:13;;;;;;;916.27;572.53;;;14.10;99.90;;;;;;5130267;27;20214;-50
2022/10/12 12:44:00;;;;;;;847.80;612.90;;;14.20;99.90;;;;;;5091943;28;20197;-50
2022/10/12 12:47:08;;;;;;;945.97;594.87;;;14.20;99.90;;;;;;5127493;27;20277;-51